Time;durP1;ratioP1;P1;durP2;ratioP2;P2;SDS_P1;SDS_P2;PMS_P1;PMS_P2;Temp;Humidity;BMP_temperature;BMP_pressure;BME280_temperature;BME280_humidity;BME280_pressure;Samples;Min_cycle;Max_cycle;Signal;HPM_P1;HPM_P2
2022/12/16 00:01:04;;;;;;;39.90;26.83;;;-7.90;98.40;;;;;;5029531;28;20573;-51
2022/12/16 00:03:30;;;;;;;39.03;25.10;;;-7.90;99.90;;;;;;5030214;28;20825;-51
2022/12/16 00:05:57;;;;;;;48.40;28.30;;;-7.90;95.60;;;;;;5028408;28;20542;-50
2022/12/16 00:08:23;;;;;;;37.90;28.23;;;-8.00;92.70;;;;;;5029128;28;20494;-50
2022/12/16 00:10:53;;;;;;;34.23;25.07;;;-7.90;92.10;;;;;;5034132;28;20576;-50
2022/12/16 00:13:20;;;;;;;37.37;26.47;;;-8.00;97.50;;;;;;5040961;28;21069;-51
2022/12/16 00:15:47;;;;;;;38.03;25.53;;;-8.00;99.90;;;;;;5029666;28;20550;-51
2022/12/16 00:18:14;;;;;;;38.37;27.03;;;-8.10;99.90;;;;;;5029310;28;20558;-51
2022/12/16 00:20:45;;;;;;;37.13;25.80;;;-8.10;94.90;;;;;;5029787;28;20462;-51
2022/12/16 00:23:11;;;;;;;41.97;28.10;;;-8.10;93.30;;;;;;5018622;28;20462;-51
2022/12/16 00:25:38;;;;;;;40.70;28.60;;;-8.20;97.30;;;;;;5022059;28;20474;-51
2022/12/16 00:28:04;;;;;;;45.77;27.53;;;-8.20;94.40;;;;;;5034699;28;20553;-50
2022/12/16 00:30:32;;;;;;;38.97;27.10;;;-8.20;96.10;;;;;;5027959;28;20919;-52
2022/12/16 00:32:59;;;;;;;39.70;26.50;;;-8.20;99.40;;;;;;5029682;28;20577;-50
2022/12/16 00:35:25;;;;;;;43.10;28.60;;;-8.30;99.90;;;;;;5037000;28;20907;-50
2022/12/16 00:37:52;;;;;;;37.90;26.80;;;-8.20;99.90;;;;;;5031318;28;21016;-50
2022/12/16 00:40:19;;;;;;;41.40;27.63;;;-8.20;99.90;;;;;;5031392;28;20525;-51
2022/12/16 00:42:45;;;;;;;37.73;28.07;;;-8.20;99.90;;;;;;5030710;28;20485;-51
2022/12/16 00:45:12;;;;;;;39.77;28.47;;;-8.20;99.90;;;;;;5032033;28;20504;-51
2022/12/16 00:47:40;;;;;;;42.63;27.60;;;-8.30;99.90;;;;;;5031587;28;20557;-50
2022/12/16 00:50:08;;;;;;;43.17;30.00;;;-8.30;99.90;;;;;;5028819;28;20554;-50
2022/12/16 00:52:35;;;;;;;39.60;27.40;;;-8.40;99.90;;;;;;5036510;28;20529;-50
2022/12/16 00:55:02;;;;;;;38.90;27.63;;;-8.30;98.90;;;;;;5031532;28;20921;-51
2022/12/16 00:57:28;;;;;;;49.20;29.30;;;-8.30;99.10;;;;;;5033182;28;20466;-51
2022/12/16 00:59:55;;;;;;;36.23;27.40;;;-8.30;99.90;;;;;;5029785;28;20537;-50
2022/12/16 01:02:21;;;;;;;45.10;30.70;;;-8.40;99.90;;;;;;5033590;28;20512;-51
2022/12/16 01:04:49;;;;;;;51.53;32.87;;;-8.30;99.90;;;;;;5033107;28;21042;-50
2022/12/16 01:07:15;;;;;;;55.37;37.40;;;-8.40;99.90;;;;;;5033080;28;20549;-51
2022/12/16 01:09:42;;;;;;;52.50;35.57;;;-8.40;99.90;;;;;;5042533;28;20494;-50
2022/12/16 01:12:10;;;;;;;51.13;34.00;;;-8.40;99.90;;;;;;5034222;28;20514;-51
2022/12/16 01:14:36;;;;;;;52.00;34.20;;;-8.40;99.90;;;;;;5026366;28;20474;-51
2022/12/16 01:17:03;;;;;;;64.10;40.77;;;-8.50;99.90;;;;;;5031545;28;20885;-50
2022/12/16 01:19:29;;;;;;;54.77;36.47;;;-8.50;99.90;;;;;;5032806;28;20908;-50
2022/12/16 01:21:57;;;;;;;44.43;32.10;;;-8.50;99.90;;;;;;5027368;28;20577;-51
2022/12/16 01:24:24;;;;;;;45.23;30.17;;;-8.50;99.90;;;;;;5038522;28;20549;-50
2022/12/16 01:26:50;;;;;;;39.40;26.50;;;-8.60;99.90;;;;;;5033315;28;20569;-51
2022/12/16 01:29:17;;;;;;;39.23;27.90;;;-8.60;99.90;;;;;;5028961;28;20581;-51
2022/12/16 01:31:44;;;;;;;38.97;27.67;;;-8.60;99.90;;;;;;5027684;28;20482;-50
2022/12/16 01:34:10;;;;;;;36.47;25.97;;;-8.60;99.90;;;;;;5033009;28;20648;-50
2022/12/16 01:36:37;;;;;;;32.77;24.13;;;-8.60;99.90;;;;;;5032285;28;21048;-55
2022/12/16 01:39:05;;;;;;;40.33;25.50;;;-8.70;99.90;;;;;;5037560;28;20999;-56
2022/12/16 01:41:31;;;;;;;34.10;24.53;;;-8.70;99.90;;;;;;5030645;28;20561;-55
2022/12/16 01:44:13;;;;;;;35.67;26.30;;;-8.70;99.90;;;;;;5033319;28;20455;-56
2022/12/16 01:46:41;;;;;;;39.07;27.73;;;-8.70;99.90;;;;;;5026863;28;20542;-55
2022/12/16 01:49:14;;;;;;;37.00;27.00;;;-8.70;99.90;;;;;;5033260;28;20554;-55
2022/12/16 01:51:44;;;;;;;39.13;27.60;;;-8.70;99.90;;;;;;5026200;28;20970;-55
2022/12/16 01:54:17;;;;;;;33.43;24.90;;;-8.70;99.90;;;;;;5032485;28;20558;-56
2022/12/16 01:56:48;;;;;;;37.47;26.40;;;-8.80;99.90;;;;;;5030048;28;20466;-54
2022/12/16 01:59:17;;;;;;;37.33;26.43;;;-8.80;99.90;;;;;;5029524;28;20545;-54
2022/12/16 02:01:44;;;;;;;36.33;24.97;;;-8.80;99.90;;;;;;5028368;28;20585;-54
2022/12/16 02:04:10;;;;;;;33.90;26.37;;;-8.70;99.90;;;;;;5031265;28;20930;-55
2022/12/16 02:06:37;;;;;;;34.03;24.30;;;-8.70;99.90;;;;;;5031772;28;21023;-55
2022/12/16 02:09:07;;;;;;;33.97;25.13;;;-8.80;99.90;;;;;;5028889;28;20487;-53
2022/12/16 02:12:04;;;;;;;35.57;24.10;;;-8.80;99.90;;;;;;5027695;28;20482;-53
2022/12/16 02:14:46;;;;;;;37.60;25.43;;;-8.80;99.90;;;;;;5031951;28;20937;-54
2022/12/16 02:17:17;;;;;;;37.93;25.00;;;-8.80;99.90;;;;;;5028658;28;20492;-55
2022/12/16 02:20:06;;;;;;;35.27;25.23;;;-8.90;99.90;;;;;;5032148;28;21111;-55
2022/12/16 02:22:46;;;;;;;34.43;24.10;;;-9.00;99.90;;;;;;5030104;28;20549;-55
2022/12/16 02:25:40;;;;;;;35.30;25.00;;;-8.90;99.90;;;;;;5024894;28;20546;-55
2022/12/16 02:28:21;;;;;;;33.00;23.13;;;-9.00;99.90;;;;;;5034495;28;20548;-55
2022/12/16 02:30:57;;;;;;;37.80;24.67;;;-8.90;99.90;;;;;;5027127;28;20469;-54
2022/12/16 02:33:38;;;;;;;38.37;26.73;;;-9.00;99.90;;;;;;5032964;28;20573;-56
2022/12/16 02:36:12;;;;;;;35.20;25.03;;;-9.00;99.90;;;;;;5032296;28;20579;-56
2022/12/16 02:38:45;;;;;;;49.60;30.43;;;-9.00;99.90;;;;;;5025725;28;20550;-54
2022/12/16 02:41:21;;;;;;;63.03;38.50;;;-9.10;99.90;;;;;;5031293;28;21098;-56
2022/12/16 02:43:55;;;;;;;43.43;29.10;;;-9.00;99.90;;;;;;5032594;28;20541;-55
2022/12/16 02:46:26;;;;;;;39.70;26.77;;;-9.00;99.90;;;;;;5029148;28;20454;-55
2022/12/16 02:48:54;;;;;;;37.73;25.90;;;-9.10;99.90;;;;;;5031098;28;20625;-55
2022/12/16 02:51:21;;;;;;;37.73;24.90;;;-9.10;99.90;;;;;;5031011;28;20478;-55
2022/12/16 02:53:50;;;;;;;34.37;24.77;;;-9.20;99.90;;;;;;5031407;28;20514;-56
2022/12/16 02:56:29;;;;;;;36.67;25.90;;;-9.10;99.90;;;;;;5033510;28;20486;-55
2022/12/16 02:59:08;;;;;;;34.97;24.70;;;-9.10;99.90;;;;;;5021189;28;20569;-55
2022/12/16 03:01:44;;;;;;;38.30;25.93;;;-9.10;99.90;;;;;;5032263;28;20869;-55
2022/12/16 03:04:15;;;;;;;37.20;26.67;;;-9.10;99.90;;;;;;5031357;28;20524;-55
2022/12/16 03:06:47;;;;;;;34.63;23.90;;;-9.20;99.90;;;;;;5025512;28;20486;-55
2022/12/16 03:09:18;;;;;;;34.83;26.23;;;-9.20;99.90;;;;;;5032770;28;20466;-55
2022/12/16 03:11:47;;;;;;;39.93;28.30;;;-9.30;99.90;;;;;;5031251;28;20502;-56
2022/12/16 03:14:16;;;;;;;40.30;26.10;;;-9.20;99.90;;;;;;5029515;28;20518;-55
2022/12/16 03:16:46;;;;;;;36.17;24.23;;;-9.20;99.90;;;;;;5031527;28;20478;-54
2022/12/16 03:19:13;;;;;;;40.30;26.17;;;-9.30;99.90;;;;;;5030944;28;20548;-55
2022/12/16 03:21:47;;;;;;;37.27;25.77;;;-9.20;99.90;;;;;;5031960;28;20506;-55
2022/12/16 03:24:15;;;;;;;35.60;23.80;;;-9.20;99.90;;;;;;5030832;28;20490;-56
2022/12/16 03:26:49;;;;;;;37.60;25.67;;;-9.30;99.90;;;;;;5029480;28;20988;-54
2022/12/16 03:29:24;;;;;;;35.57;25.57;;;-9.30;99.90;;;;;;5029034;28;20557;-55
2022/12/16 03:31:56;;;;;;;37.20;25.07;;;-9.30;99.90;;;;;;5023530;28;20533;-54
2022/12/16 03:34:32;;;;;;;42.83;24.90;;;-9.30;99.90;;;;;;5024927;28;20566;-55
2022/12/16 03:37:03;;;;;;;37.80;24.33;;;-9.30;99.90;;;;;;5029145;28;20506;-55
2022/12/16 03:39:31;;;;;;;34.60;24.07;;;-9.30;99.90;;;;;;5029203;28;20475;-55
2022/12/16 03:41:58;;;;;;;36.27;26.13;;;-9.30;99.90;;;;;;5031375;28;20532;-55
2022/12/16 03:44:25;;;;;;;35.87;24.10;;;-9.30;99.90;;;;;;5030026;28;20494;-55
2022/12/16 03:46:53;;;;;;;34.70;25.43;;;-9.30;99.90;;;;;;5028438;28;20508;-56
2022/12/16 03:49:21;;;;;;;39.50;24.97;;;-9.30;99.90;;;;;;5027566;28;20455;-55
2022/12/16 03:51:47;;;;;;;41.83;29.17;;;-9.40;99.90;;;;;;5034990;28;20978;-55
2022/12/16 03:54:14;;;;;;;39.00;26.63;;;-9.30;99.90;;;;;;5035608;28;21266;-55
2022/12/16 03:56:42;;;;;;;37.77;23.60;;;-9.40;99.90;;;;;;5030122;28;20463;-55
2022/12/16 03:59:09;;;;;;;33.23;25.13;;;-9.40;99.90;;;;;;5028895;28;20964;-55
2022/12/16 04:01:37;;;;;;;30.43;23.13;;;-9.40;99.90;;;;;;5028910;28;20577;-55
2022/12/16 04:04:05;;;;;;;37.57;26.57;;;-9.40;99.90;;;;;;5034385;28;20442;-55
2022/12/16 04:06:32;;;;;;;36.73;25.80;;;-9.40;99.90;;;;;;5032832;28;20512;-55
2022/12/16 04:08:58;;;;;;;35.10;25.80;;;-9.40;99.90;;;;;;5026703;28;20554;-56
2022/12/16 04:25:29;;;;;;;32.13;23.53;;;-9.60;99.90;;;;;;4985252;28;20529;-56
2022/12/16 04:27:57;;;;;;;36.47;23.50;;;-9.60;99.90;;;;;;4980567;28;20495;-56
2022/12/16 04:30:26;;;;;;;36.03;24.20;;;-9.60;99.90;;;;;;5004700;28;20471;-54
